createdAt,value
2022-12-17T00:00:00.278Z,-5.50
2022-12-17T00:03:08.067Z,-5.60
2022-12-17T00:06:13.015Z,-5.60
2022-12-17T00:09:18.564Z,-5.80
2022-12-17T00:12:23.951Z,-5.70
2022-12-17T00:15:31.620Z,-5.80
2022-12-17T00:18:40.262Z,-5.60
2022-12-17T00:21:45.892Z,-5.60
2022-12-17T00:24:51.342Z,-5.60
2022-12-17T00:27:57.608Z,-5.60
2022-12-17T00:31:02.384Z,-5.80
2022-12-17T00:34:10.397Z,-5.90
2022-12-17T00:37:16.946Z,-6.00
2022-12-17T00:40:23.598Z,-6.10
2022-12-17T00:43:30.031Z,-6.20
2022-12-17T00:46:46.521Z,-6.30
2022-12-17T00:49:53.627Z,-6.10
2022-12-17T00:53:02.620Z,-6.20
2022-12-17T00:56:07.561Z,-6.30
2022-12-17T00:59:19.750Z,-6.50
2022-12-17T01:02:24.327Z,-6.50
2022-12-17T01:05:31.188Z,-6.50
2022-12-17T01:08:36.313Z,-6.50
2022-12-17T01:11:41.865Z,-6.50
2022-12-17T01:14:43.033Z,-6.60
2022-12-17T01:17:47.853Z,-6.60
2022-12-17T01:20:54.240Z,-6.60
2022-12-17T01:24:06.267Z,-6.50
2022-12-17T01:27:11.163Z,-6.60
2022-12-17T01:30:16.109Z,-6.70
2022-12-17T01:33:21.623Z,-6.70
2022-12-17T01:36:28.204Z,-6.70
2022-12-17T01:39:35.401Z,-6.50
2022-12-17T01:42:40.230Z,-6.30
2022-12-17T01:45:45.400Z,-6.20
2022-12-17T01:48:52.211Z,-6.20
2022-12-17T01:51:58.696Z,-6.20
2022-12-17T01:55:03.765Z,-6.20
2022-12-17T01:58:16.998Z,-6.10
2022-12-17T02:01:22.279Z,-6.60
2022-12-17T02:04:28.612Z,-6.20
2022-12-17T02:07:52.976Z,-6.20
2022-12-17T02:10:59.682Z,-6.30
2022-12-17T02:14:07.939Z,-6.40
2022-12-17T02:17:16.219Z,-6.50
2022-12-17T02:20:26.093Z,-6.60
2022-12-17T02:23:38.217Z,-6.60
2022-12-17T02:26:54.475Z,-6.70
2022-12-17T02:30:01.102Z,-6.70
2022-12-17T02:33:06.293Z,-6.90
2022-12-17T02:36:13.286Z,-6.70
2022-12-17T02:39:18.641Z,-6.70
2022-12-17T02:42:25.105Z,-6.70
2022-12-17T02:45:30.624Z,-6.70
2022-12-17T02:48:35.440Z,-6.80
2022-12-17T02:51:40.661Z,-6.80
2022-12-17T02:54:47.652Z,-7.00
2022-12-17T02:57:54.395Z,-7.10
2022-12-17T03:01:00.040Z,-7.10
2022-12-17T03:04:05.699Z,-10.30
2022-12-17T03:07:10.759Z,-7.30
2022-12-17T03:10:15.495Z,-7.40
2022-12-17T03:13:22.660Z,-7.50
2022-12-17T03:16:34.088Z,-7.60
2022-12-17T03:19:41.863Z,-7.70
2022-12-17T03:22:46.596Z,-7.60
2022-12-17T03:25:52.145Z,-7.50
2022-12-17T03:29:02.010Z,-7.20
2022-12-17T03:32:07.410Z,-7.00
2022-12-17T03:35:12.051Z,-7.10
2022-12-17T03:38:17.340Z,-7.00
2022-12-17T03:41:23.263Z,-6.90
2022-12-17T03:44:30.385Z,-7.00
2022-12-17T03:47:43.894Z,-7.00
2022-12-17T03:50:49.961Z,-7.00
2022-12-17T03:53:55.416Z,-6.40
2022-12-17T03:56:56.725Z,-6.90
2022-12-17T04:00:03.068Z,-6.90
2022-12-17T04:03:17.064Z,-6.90
2022-12-17T04:06:23.175Z,-7.00
2022-12-17T04:09:28.912Z,-7.10
2022-12-17T04:12:34.343Z,-6.90
2022-12-17T04:15:41.393Z,-6.30
2022-12-17T04:18:46.106Z,-6.80
2022-12-17T04:21:51.106Z,-6.70
2022-12-17T04:24:56.494Z,-6.60
2022-12-17T04:28:02.154Z,-5.80
2022-12-17T04:31:09.303Z,-6.50
2022-12-17T04:34:14.266Z,-6.40
2022-12-17T04:37:19.739Z,-6.20
2022-12-17T04:40:25.669Z,-6.20
2022-12-17T04:43:31.705Z,-6.20
2022-12-17T04:46:38.315Z,-6.20
2022-12-17T04:49:43.406Z,-6.10
2022-12-17T04:52:48.593Z,-6.00
2022-12-17T04:55:54.219Z,-6.20
2022-12-17T04:58:59.586Z,-6.20
2022-12-17T05:02:06.875Z,-6.20
2022-12-17T05:05:12.313Z,-6.20
2022-12-17T05:08:17.371Z,-6.20
2022-12-17T05:11:23.445Z,-6.20
2022-12-17T05:14:31.318Z,-6.10
2022-12-17T05:17:37.895Z,-6.10
2022-12-17T05:20:43.247Z,-6.20
2022-12-17T05:23:48.589Z,-6.30
2022-12-17T05:26:54.072Z,-6.50
2022-12-17T05:29:59.703Z,-6.60
2022-12-17T05:33:21.712Z,-6.70
2022-12-17T05:36:27.508Z,-6.80
2022-12-17T05:39:33.160Z,-7.00
2022-12-17T05:42:34.998Z,-7.00
2022-12-17T05:45:40.760Z,-7.00
2022-12-17T05:48:47.750Z,-6.80
2022-12-17T05:51:53.202Z,-6.80
2022-12-17T05:55:01.631Z,-6.80
2022-12-17T05:58:09.562Z,-6.70
2022-12-17T06:01:15.407Z,-6.80
2022-12-17T06:04:22.029Z,-6.80
2022-12-17T06:07:27.502Z,-6.80
2022-12-17T06:10:32.251Z,-6.80
2022-12-17T06:13:37.770Z,-6.70
2022-12-17T06:16:43.233Z,-6.70
2022-12-17T06:19:50.127Z,-6.80
2022-12-17T06:22:55.668Z,-6.70
2022-12-17T06:26:01.295Z,-6.60
2022-12-17T06:29:06.786Z,-6.60
2022-12-17T06:32:12.292Z,-6.80
2022-12-17T06:35:19.511Z,-6.70
2022-12-17T06:38:25.319Z,-6.70
2022-12-17T06:41:30.715Z,-6.70
2022-12-17T06:44:35.652Z,-6.70
2022-12-17T06:47:41.101Z,-6.70
2022-12-17T06:50:48.795Z,-6.70
2022-12-17T06:53:54.293Z,-6.70
2022-12-17T06:56:59.405Z,-6.70
2022-12-17T07:00:04.327Z,-6.70
2022-12-17T07:03:15.823Z,-6.30
2022-12-17T07:06:22.583Z,-6.60
2022-12-17T07:09:27.640Z,-6.60
2022-12-17T07:12:34.972Z,-6.60
2022-12-17T07:15:40.276Z,-6.70
2022-12-17T07:18:45.674Z,-6.80
2022-12-17T07:21:52.530Z,-6.70
2022-12-17T07:24:57.909Z,-6.80
2022-12-17T07:28:10.779Z,-6.90
2022-12-17T07:31:16.444Z,-7.00
2022-12-17T07:34:21.184Z,-7.00
2022-12-17T07:37:28.352Z,-7.00
2022-12-17T07:40:33.298Z,-7.00
2022-12-17T07:43:39.117Z,-7.00
2022-12-17T07:46:45.061Z,-7.50
2022-12-17T07:49:50.526Z,-6.40
2022-12-17T07:52:57.667Z,-6.80
2022-12-17T07:56:03.044Z,-6.70
2022-12-17T07:59:08.032Z,-6.60
2022-12-17T08:02:13.065Z,-6.50
2022-12-17T08:05:20.616Z,-6.40
2022-12-17T08:08:30.408Z,-6.40
2022-12-17T08:11:35.085Z,-6.20
2022-12-17T08:14:39.990Z,-6.10
2022-12-17T08:17:45.435Z,-6.00
2022-12-17T08:20:50.055Z,-6.00
2022-12-17T08:23:56.707Z,-5.90
2022-12-17T08:27:01.806Z,-5.80
2022-12-17T08:30:07.153Z,-5.60
2022-12-17T08:33:20.055Z,-5.50
2022-12-17T08:36:25.551Z,-5.40
2022-12-17T08:39:32.685Z,-5.30
2022-12-17T08:42:37.738Z,-5.20
2022-12-17T08:45:42.597Z,-5.10
2022-12-17T08:48:48.200Z,-5.10
2022-12-17T08:51:53.769Z,-5.00
2022-12-17T08:55:09.255Z,-4.90
2022-12-17T08:58:15.061Z,-4.90
2022-12-17T09:01:22.412Z,-4.80
2022-12-17T09:04:27.103Z,-4.80
2022-12-17T09:07:32.075Z,-4.70
2022-12-17T09:10:39.000Z,-4.30
2022-12-17T09:13:44.202Z,-4.60
2022-12-17T09:16:49.738Z,-4.30
2022-12-17T09:19:54.898Z,-4.50
2022-12-17T09:22:59.536Z,-4.50
2022-12-17T09:26:11.858Z,-4.40
2022-12-17T09:29:17.281Z,-4.30
2022-12-17T09:32:23.374Z,-4.20
2022-12-17T09:35:28.449Z,-3.60
2022-12-17T09:38:36.941Z,-4.10
2022-12-17T09:41:45.838Z,-4.00
2022-12-17T09:44:54.335Z,-3.90
2022-12-17T09:48:05.032Z,-3.90
2022-12-17T09:51:10.892Z,-3.80
2022-12-17T09:54:16.992Z,-3.80
2022-12-17T09:57:25.080Z,-3.80
2022-12-17T10:00:32.150Z,-3.70
2022-12-17T10:03:38.783Z,-3.80
2022-12-17T10:06:45.778Z,-3.70
2022-12-17T10:09:52.775Z,-3.70
2022-12-17T10:12:59.688Z,-3.70
2022-12-17T10:16:05.265Z,-3.60
2022-12-17T10:19:10.886Z,-3.60
2022-12-17T10:22:24.764Z,-3.50
2022-12-17T10:25:33.291Z,-3.50
2022-12-17T10:28:40.821Z,-3.50
2022-12-17T10:31:48.351Z,-3.50
2022-12-17T10:34:56.674Z,-3.10
2022-12-17T10:38:03.880Z,-3.10
2022-12-17T10:41:09.095Z,-3.10
2022-12-17T10:44:15.636Z,-3.10
2022-12-17T10:47:20.960Z,-3.20
2022-12-17T10:50:28.635Z,-3.20
2022-12-17T10:53:38.020Z,-3.20
2022-12-17T10:56:44.250Z,-3.10
2022-12-17T10:59:54.184Z,-3.00
2022-12-17T11:03:06.463Z,-2.90
2022-12-17T11:06:13.886Z,-2.80
2022-12-17T11:09:20.796Z,-2.70
2022-12-17T11:12:30.809Z,-2.80
2022-12-17T11:15:41.294Z,-2.80
2022-12-17T11:18:49.215Z,-2.90
2022-12-17T11:21:58.440Z,-2.60
2022-12-17T11:25:05.244Z,-2.80
2022-12-17T11:28:20.798Z,-2.90
2022-12-17T11:31:46.938Z,-2.90
2022-12-17T11:34:59.490Z,-2.90
2022-12-17T11:38:08.551Z,-2.90
2022-12-17T11:41:17.662Z,-2.90
2022-12-17T11:44:44.374Z,-2.80
2022-12-17T11:47:59.229Z,-2.50
2022-12-17T11:51:08.812Z,-2.60
2022-12-17T11:54:17.155Z,-2.60
2022-12-17T11:57:27.078Z,-2.70
2022-12-17T12:00:35.064Z,-2.60
2022-12-17T12:03:45.840Z,-2.70
2022-12-17T12:06:55.850Z,-1.80
2022-12-17T12:10:06.818Z,-2.40
2022-12-17T12:13:19.189Z,-2.40
2022-12-17T12:16:29.062Z,-2.30
2022-12-17T12:19:37.189Z,-2.70
2022-12-17T12:22:48.026Z,-2.50
2022-12-17T12:25:56.304Z,-2.00
2022-12-17T12:29:04.820Z,-2.40
2022-12-17T12:32:12.666Z,-2.40
2022-12-17T12:35:20.674Z,-2.60
2022-12-17T12:38:29.716Z,-2.70
2022-12-17T12:41:38.122Z,-2.70
2022-12-17T12:44:49.717Z,-2.60
2022-12-17T12:48:01.208Z,-2.50
2022-12-17T12:51:09.676Z,-2.60
2022-12-17T12:54:19.487Z,-2.50
2022-12-17T12:57:43.260Z,-2.40
2022-12-17T13:00:51.507Z,-2.40
2022-12-17T13:03:57.534Z,-2.60
2022-12-17T13:06:46.911Z,-2.60
2022-12-17T13:09:39.892Z,-2.80
2022-12-17T13:12:36.325Z,-2.80
2022-12-17T13:15:32.879Z,-2.80
2022-12-17T13:18:24.565Z,-2.60
2022-12-17T13:21:25.008Z,-2.50
2022-12-17T13:24:13.391Z,-2.10
2022-12-17T13:27:03.227Z,-2.60
2022-12-17T13:29:51.198Z,-2.60
2022-12-17T13:32:42.086Z,-2.20
2022-12-17T13:35:34.315Z,-2.60
2022-12-17T13:38:23.091Z,-2.60
2022-12-17T13:41:13.170Z,-2.50
2022-12-17T13:44:16.983Z,-2.40
2022-12-17T13:47:05.720Z,-2.40
2022-12-17T13:50:32.118Z,-2.40
2022-12-17T13:53:11.567Z,-2.50
2022-12-17T13:55:59.656Z,-2.50
2022-12-17T13:58:51.890Z,-2.70
2022-12-17T14:01:47.125Z,-2.80
2022-12-17T14:04:34.859Z,-2.70
2022-12-17T14:07:23.044Z,-2.80
2022-12-17T14:10:16.466Z,-2.60
2022-12-17T14:13:05.816Z,-2.60
2022-12-17T14:15:54.398Z,-2.70
2022-12-17T14:18:44.986Z,-2.80
2022-12-17T14:21:33.193Z,-2.80
2022-12-17T14:24:30.198Z,-2.80
2022-12-17T14:27:25.670Z,-2.80
2022-12-17T14:30:24.218Z,-2.60
2022-12-17T14:33:26.914Z,-2.60
2022-12-17T14:36:20.549Z,-2.50
2022-12-17T14:39:18.218Z,-2.60
2022-12-17T14:42:29.764Z,-2.60
2022-12-17T14:45:25.031Z,-2.60
2022-12-17T14:48:16.751Z,-2.70
2022-12-17T14:51:04.084Z,-2.70
2022-12-17T14:53:53.652Z,-2.80
2022-12-17T14:56:41.458Z,-2.80
2022-12-17T14:59:33.725Z,-2.80
2022-12-17T15:02:24.349Z,-2.90
2022-12-17T15:05:14.901Z,-2.80
2022-12-17T15:08:02.367Z,-2.80
2022-12-17T15:10:51.904Z,-2.60
2022-12-17T15:13:39.632Z,-2.90
2022-12-17T15:16:27.412Z,-2.90
2022-12-17T15:19:15.134Z,-3.00
2022-12-17T15:22:04.298Z,-2.90
2022-12-17T15:24:51.493Z,-3.00
2022-12-17T15:27:40.479Z,-3.10
2022-12-17T15:30:28.653Z,-3.10
2022-12-17T15:33:16.546Z,-3.20
2022-12-17T15:36:05.495Z,-3.30
2022-12-17T15:38:53.051Z,-3.20
2022-12-17T15:41:58.370Z,-3.20
2022-12-17T15:44:47.561Z,-3.20
2022-12-17T15:47:35.778Z,-3.30
2022-12-17T15:50:23.028Z,-3.20
2022-12-17T15:53:10.577Z,-3.20
2022-12-17T15:56:02.944Z,-2.50
2022-12-17T15:58:51.511Z,-3.30
2022-12-17T16:01:40.903Z,-3.30
2022-12-17T16:04:28.703Z,-3.40
2022-12-17T16:07:16.697Z,-3.40
2022-12-17T16:10:05.742Z,-3.40
2022-12-17T16:12:54.186Z,-3.20
2022-12-17T16:15:43.386Z,-3.50
2022-12-17T16:18:33.230Z,-3.30
2022-12-17T16:21:21.462Z,-3.50
2022-12-17T16:24:10.851Z,-3.50
2022-12-17T16:27:04.038Z,-3.60
2022-12-17T16:29:52.901Z,-3.60
2022-12-17T16:32:41.145Z,-3.60
2022-12-17T16:35:30.806Z,-3.60
2022-12-17T16:38:17.937Z,-3.60
2022-12-17T16:41:06.134Z,-3.60
2022-12-17T16:43:53.496Z,-3.60
2022-12-17T16:46:42.954Z,-3.70
2022-12-17T16:49:31.216Z,-3.70
2022-12-17T16:52:20.605Z,-3.70
2022-12-17T16:55:07.937Z,-3.70
2022-12-17T16:57:55.844Z,-3.60
2022-12-17T17:00:43.388Z,-3.70
2022-12-17T17:03:31.488Z,-3.70
2022-12-17T17:06:22.055Z,-3.80
2022-12-17T17:09:11.696Z,-3.90
2022-12-17T17:12:00.187Z,-3.90
2022-12-17T17:14:48.288Z,-4.00
2022-12-17T17:17:54.029Z,-3.90
2022-12-17T17:20:43.598Z,-4.00
2022-12-17T17:23:31.456Z,-4.00
2022-12-17T17:26:23.408Z,-4.00
2022-12-17T17:29:11.556Z,-4.10
2022-12-17T17:32:14.588Z,-4.10
2022-12-17T17:35:02.705Z,-4.10
2022-12-17T17:37:50.655Z,-4.20
2022-12-17T17:40:38.177Z,-4.20
2022-12-17T17:43:27.505Z,-4.30
2022-12-17T17:46:15.828Z,-4.30
2022-12-17T17:49:04.958Z,-4.40
2022-12-17T17:52:09.061Z,-4.40
2022-12-17T17:54:57.936Z,-4.50
2022-12-17T17:57:45.762Z,-4.50
2022-12-17T18:00:34.685Z,-4.50
2022-12-17T18:03:22.754Z,-4.60
2022-12-17T18:06:11.311Z,-4.70
2022-12-17T18:09:00.041Z,-4.70
2022-12-17T18:11:47.778Z,-4.70
2022-12-17T18:14:41.746Z,-4.60
2022-12-17T18:17:31.725Z,-4.60
2022-12-17T18:20:20.029Z,-4.60
2022-12-17T18:23:07.966Z,-4.60
2022-12-17T18:25:55.870Z,-4.60
2022-12-17T18:28:44.218Z,-4.70
2022-12-17T18:31:32.545Z,-4.80
2022-12-17T18:34:23.445Z,-4.90
2022-12-17T18:37:11.477Z,-4.80
2022-12-17T18:39:59.319Z,-4.90
2022-12-17T18:43:04.693Z,-5.00
2022-12-17T18:45:53.127Z,-5.00
2022-12-17T18:48:41.723Z,-5.00
2022-12-17T18:51:31.054Z,-5.00
2022-12-17T18:54:20.540Z,-5.90
2022-12-17T18:57:09.194Z,-5.00
2022-12-17T18:59:57.060Z,-5.00
2022-12-17T19:02:45.503Z,-5.00
2022-12-17T19:05:33.552Z,-5.00
2022-12-17T19:08:22.390Z,-5.00
2022-12-17T19:11:10.934Z,-5.00
2022-12-17T19:13:59.202Z,-5.00
2022-12-17T19:16:46.811Z,-5.10
2022-12-17T19:19:34.852Z,-5.10
2022-12-17T19:22:22.805Z,-5.10
2022-12-17T19:25:11.853Z,-5.10
2022-12-17T19:27:59.834Z,-5.20
2022-12-17T19:30:47.892Z,-6.70
2022-12-17T19:33:35.711Z,-5.40
2022-12-17T19:36:28.293Z,-5.50
2022-12-17T19:39:16.921Z,-5.50
2022-12-17T19:42:05.949Z,-5.60
2022-12-17T19:44:54.098Z,-5.70
2022-12-17T19:47:42.157Z,-5.70
2022-12-17T19:50:30.266Z,-5.70
2022-12-17T19:53:23.760Z,-5.80
2022-12-17T19:56:12.646Z,-5.90
2022-12-17T19:59:07.145Z,-5.90
2022-12-17T20:01:55.302Z,-5.90
2022-12-17T20:04:43.572Z,-5.90
2022-12-17T20:07:31.750Z,-6.00
2022-12-17T20:10:19.462Z,-5.80
2022-12-17T20:13:07.087Z,-5.70
2022-12-17T20:16:01.799Z,-5.80
2022-12-17T20:18:49.206Z,-5.80
2022-12-17T20:21:37.076Z,-5.90
2022-12-17T20:24:31.235Z,-5.90
2022-12-17T20:27:19.917Z,-5.90
2022-12-17T20:30:08.541Z,-5.80
2022-12-17T20:32:57.530Z,-6.00
2022-12-17T20:35:45.660Z,-5.90
2022-12-17T20:38:32.912Z,-6.00
2022-12-17T20:41:22.430Z,-5.90
2022-12-17T20:44:13.863Z,-5.60
2022-12-17T20:47:01.964Z,-5.80
2022-12-17T20:49:51.521Z,-5.80
2022-12-17T20:52:42.796Z,-5.90
2022-12-17T20:55:31.388Z,-5.80
2022-12-17T20:58:19.249Z,-5.80
2022-12-17T21:01:07.877Z,-5.80
2022-12-17T21:03:56.235Z,-5.80
2022-12-17T21:06:46.428Z,-5.70
2022-12-17T21:09:34.114Z,-5.70
2022-12-17T21:12:22.490Z,-5.70
2022-12-17T21:15:10.190Z,-5.70
2022-12-17T21:17:58.654Z,-5.60
2022-12-17T21:20:54.851Z,-5.60
2022-12-17T21:23:44.710Z,-5.70
2022-12-17T21:26:33.720Z,-5.70
2022-12-17T21:29:21.900Z,-5.70
2022-12-17T21:32:11.375Z,-5.60
2022-12-17T21:34:59.589Z,-5.60
2022-12-17T21:37:47.437Z,-5.60
2022-12-17T21:40:37.917Z,-5.60
2022-12-17T21:43:25.755Z,-5.70
2022-12-17T21:46:13.964Z,-5.60
2022-12-17T21:49:03.063Z,-5.70
2022-12-17T21:51:51.746Z,-5.80
2022-12-17T21:54:38.978Z,-4.60
2022-12-17T21:57:27.903Z,-5.80
2022-12-17T22:00:16.458Z,-5.90
2022-12-17T22:03:04.497Z,-5.90
2022-12-17T22:05:52.152Z,-6.00
2022-12-17T22:08:40.472Z,-6.20
2022-12-17T22:11:28.959Z,-6.00
2022-12-17T22:14:21.100Z,-5.90
2022-12-17T22:17:08.715Z,-6.00
2022-12-17T22:19:56.735Z,-6.00
2022-12-17T22:22:44.578Z,-6.00
2022-12-17T22:25:32.134Z,-5.90
2022-12-17T22:28:19.758Z,-5.90
2022-12-17T22:31:26.069Z,-7.30
2022-12-17T22:35:14.840Z,-5.90
2022-12-17T22:41:08.076Z,-5.90
2022-12-17T22:43:40.200Z,-5.90
2022-12-17T22:44:41.940Z,-5.90
2022-12-17T22:46:45.260Z,-6.00
2022-12-17T22:49:32.988Z,-6.00
2022-12-17T22:52:21.062Z,-6.10
2022-12-17T22:55:09.068Z,-6.10
2022-12-17T22:58:01.920Z,-5.80
2022-12-17T23:00:49.247Z,-6.00
2022-12-17T23:03:39.253Z,-6.20
2022-12-17T23:06:27.945Z,-6.10
2022-12-17T23:09:16.061Z,-6.20
2022-12-17T23:12:24.266Z,-6.10
2022-12-17T23:15:11.777Z,-6.20
2022-12-17T23:18:00.435Z,-6.00
2022-12-17T23:20:49.556Z,-6.30
2022-12-17T23:23:37.911Z,-6.30
2022-12-17T23:26:27.242Z,-5.60
2022-12-17T23:29:19.466Z,-6.40
2022-12-17T23:32:07.881Z,-6.50
2022-12-17T23:34:55.644Z,-6.40
2022-12-17T23:37:44.733Z,-6.40
2022-12-17T23:40:32.639Z,-6.40
2022-12-17T23:43:20.788Z,-6.50
2022-12-17T23:46:08.590Z,-6.50
2022-12-17T23:48:59.270Z,-6.60
2022-12-17T23:51:46.853Z,-6.60
2022-12-17T23:54:36.036Z,-6.70
2022-12-17T23:57:23.802Z,-6.70
